METAR Data
IDs: Format: Raw Decoded Include TAF

Data at: 1551 UTC 21 Sep 2018

KCWV 211535Z AUTO 03005KT 10SM SCT028 SCT035 31/23 A3018 RMK AO2 T03050229
KCWV 211515Z AUTO 04006KT 10SM SCT023 SCT030 30/23 A3018 RMK AO2 T03040234
KCWV 211455Z AUTO 03005KT 10SM SCT021 30/24 A3019 RMK AO2 T02980236
KCWV 211435Z AUTO 03005KT 10SM CLR 29/24 A3018 RMK AO2 T02940239
KCWV 211415Z AUTO 02005KT 10SM CLR 29/24 A3018 RMK AO2 T02880240
KCWV 211355Z AUTO 02003KT 10SM CLR 28/24 A3018 RMK AO2 T02780236
KCWV 211335Z AUTO 00000KT 10SM CLR 27/24 A3018 RMK AO2 T02660236
KCWV 211315Z AUTO 04004KT 10SM CLR 26/23 A3018 RMK AO2 T02560231
KCWV 211255Z AUTO 04004KT 10SM CLR 25/23 A3018 RMK AO2 T02450228
KCWV 211235Z AUTO 00000KT 7SM CLR 23/22 A3018 RMK AO2 T02340223
KCWV 211215Z AUTO 00000KT 7SM CLR 23/22 A3017 RMK AO2 T02250218
KCWV 211155Z AUTO 00000KT 5SM BR CLR 22/21 A3017 RMK AO2 T02160212 10216 20197
KCWV 211135Z AUTO 00000KT 7SM CLR 20/20 A3016 RMK AO2 T02000195
KCWV 211115Z AUTO 00000KT 7SM SCT041 20/20 A3016 RMK AO2 T01990195
KCWV 211055Z AUTO 00000KT 7SM SCT041 20/19 A3015 RMK AO2 T01970193
KCWV 211035Z AUTO 00000KT 7SM CLR 20/20 A3015 RMK AO2 T01980195
KCWV 211015Z AUTO 00000KT 7SM CLR 20/20 A3014 RMK AO2 T02000195
KCWV 210955Z AUTO 00000KT 10SM CLR 20/20 A3014 RMK AO2 T02000195
KCWV 210935Z AUTO 00000KT 7SM CLR 20/20 A3013 RMK AO2 T01980195
KCWV 210915Z AUTO 00000KT 5SM BR CLR 20/20 A3013 RMK AO2 T02000195
KCWV 210855Z AUTO 00000KT 7SM CLR 20/20 A3013 RMK AO2 T02010198
KCWV 210835Z AUTO 00000KT 7SM CLR 20/20 A3013 RMK AO2 T02000196
KCWV 210815Z AUTO 00000KT 7SM CLR 20/20 A3013 RMK AO2 T02000196
KCWV 210755Z AUTO 00000KT 7SM CLR 20/20 A3013 RMK AO2 T02020198
KCWV 210735Z AUTO 00000KT 7SM CLR 20/20 A3013 RMK AO2 T02030200
KCWV 210715Z AUTO 00000KT 5SM BR CLR 20/20 A3013 RMK AO2 T02030200
KCWV 210655Z AUTO 00000KT 7SM CLR 21/20 A3013 RMK AO2 T02050201
KCWV 210635Z AUTO 00000KT 7SM CLR 21/20 A3013 RMK AO2 T02050200
KCWV 210615Z AUTO 00000KT 10SM CLR 21/20 A3014 RMK AO2 T02050200
KCWV 210555Z AUTO 00000KT 7SM CLR 21/20 A3014 RMK AO2 T02050200 10284 20205 403440190
KCWV 210535Z AUTO 00000KT 7SM CLR 21/20 A3015 RMK AO2 T02060202
KCWV 210515Z AUTO 00000KT 7SM CLR 21/20 A3015 RMK AO2 T02070203
KCWV 210455Z AUTO 00000KT 7SM CLR 21/21 A3015 RMK AO2 T02100206
KCWV 210435Z AUTO 00000KT 7SM CLR 21/21 A3015 RMK AO2 T02100206
KCWV 210415Z AUTO 00000KT 7SM CLR 21/21 A3015 RMK AO2 T02140209
KCWV 210355Z AUTO 00000KT 10SM CLR 22/21 A3015 RMK AO2 T02150210
KCWV 210335Z AUTO 00000KT 10SM CLR 22/21 A3015 RMK AO2 T02170211
KCWV 210315Z AUTO 00000KT 10SM CLR 22/21 A3015 RMK AO2 T02190211
KCWV 210255Z AUTO 00000KT 10SM CLR 23/21 A3015 RMK AO2 T02250212
KCWV 210235Z AUTO 00000KT 10SM CLR 22/21 A3014 RMK AO2 T02240211
KCWV 210215Z AUTO 00000KT 10SM CLR 23/22 A3014 RMK AO2 T02290215
KCWV 210155Z AUTO 00000KT 10SM CLR 23/22 A3014 RMK AO2 T02300215
KCWV 210135Z AUTO 00000KT 10SM CLR 24/22 A3013 RMK AO2 T02370217
KCWV 210115Z AUTO 00000KT 10SM CLR 24/22 A3012 RMK AO2 T02420217
KCWV 210055Z AUTO 00000KT 10SM CLR 25/22 A3011 RMK AO2 T02510220
KCWV 210035Z AUTO 00000KT 10SM CLR 26/22 A3010 RMK AO2 T02600220
KCWV 210015Z AUTO 09003KT 10SM CLR 28/21 A3009 RMK AO2 T02750213
KCWV 202355Z AUTO 08003KT 10SM CLR 29/21 A3009 RMK AO2 T02850212 10344 20285
KCWV 202335Z AUTO 08003KT 10SM CLR 29/21 A3008 RMK AO2 T02940210
KCWV 202315Z AUTO 07006KT 10SM CLR 30/21 A3008 RMK AO2 T02990213
KCWV 202255Z AUTO 07006KT 10SM CLR 31/21 A3007 RMK AO2 T03050214
KCWV 202235Z AUTO 08004KT 10SM CLR 31/22 A3007 RMK AO2 T03090216
KCWV 202215Z AUTO 09004KT 10SM CLR 31/22 A3007 RMK AO2 T03060218
KCWV 202155Z AUTO 09005KT 10SM SCT050 31/22 A3007 RMK AO2 T03130216
KCWV 202135Z AUTO 06005KT 10SM SCT050 SCT070 32/21 A3007 RMK AO2 T03170214
KCWV 202115Z AUTO 05006KT 10SM BKN050 BKN060 33/21 A3006 RMK AO2 T03250211
KCWV 202055Z AUTO 05009KT 10SM SCT060 SCT080 34/21 A3005 RMK AO2 T03350207
KCWV 202035Z AUTO 07008KT 10SM SCT060 SCT080 33/20 A3006 RMK AO2 T03290200
KCWV 202015Z AUTO 07008KT 10SM CLR 34/20 A3006 RMK AO2 T03400202
KCWV 201955Z AUTO 09003KT 10SM CLR 34/21 A3006 RMK AO2 T03400206
KCWV 201935Z AUTO 06006KT 10SM CLR 34/21 A3006 RMK AO2 T03380206
KCWV 201915Z AUTO 05008KT 10SM SCT075 34/21 A3007 RMK AO2 T03440208
KCWV 201855Z AUTO 06004KT 10SM SCT050 BKN075 32/21 A3008 RMK AO2 T03230205
KCWV 201835Z AUTO 04005KT 10SM BKN050 BKN065 33/21 A3009 RMK AO2 T03290205
KCWV 201815Z AUTO 05005KT 10SM BKN050 BKN065 33/20 A3009 RMK AO2 T03250197
KCWV 201755Z AUTO 05004KT 10SM BKN050 BKN065 33/20 A3010 RMK AO2 T03270202 10338 20192
KCWV 201735Z AUTO 05003KT 10SM BKN050 BKN060 33/20 A3011 RMK AO2 T03300202
KCWV 201715Z AUTO 03004KT 10SM SCT050 32/20 A3011 RMK AO2 T03210204
KCWV 201655Z AUTO 07006KT 10SM SCT048 32/20 A3012 RMK AO2 T03220201
KCWV 201635Z AUTO 02006KT 10SM SCT048 32/20 A3012 RMK AO2 T03180204
KCWV 201615Z AUTO 00000KT 10SM SCT048 SCT050 32/21 A3013 RMK AO2 T03210205
KCWV 201555Z AUTO 00000KT 10SM SCT048 32/21 A3013 RMK AO2 T03170205
KCWV 201535Z AUTO 00000KT 10SM CLR 32/21 A3014 RMK AO2 T03160208
KCWV 201515Z AUTO 02005KT 10SM CLR 31/22 A3013 RMK AO2 T03120219
KCWV 201455Z AUTO 00000KT 10SM CLR 31/22 A3013 RMK AO2 T03100224
KCWV 201435Z AUTO 01003KT 10SM CLR 30/23 A3013 RMK AO2 T03010232
KCWV 201415Z AUTO 02003KT 10SM CLR 29/24 A3013 RMK AO2 T02900236
KCWV 201355Z AUTO 00000KT 10SM CLR 28/24 A3012 RMK AO2 T02780238
KCWV 201335Z AUTO 01003KT 10SM CLR 27/24 A3011 RMK AO2 T02670235
KCWV 201315Z AUTO 00000KT 10SM CLR 25/23 A3011 RMK AO2 T02500230
KCWV 201255Z AUTO 00000KT 10SM CLR 23/21 A3010 RMK AO2 T02270213
KCWV 201235Z AUTO 00000KT 10SM CLR 21/20 A3010 RMK AO2 T02110202
KCWV 201215Z AUTO 00000KT 10SM CLR 20/20 A3009 RMK AO2 T02010196
KCWV 201155Z AUTO 00000KT 7SM CLR 19/19 A3008 RMK AO2 T01920188 10215 20190
KCWV 201135Z AUTO 00000KT 7SM CLR 19/19 A3007 RMK AO2 T01900187
KCWV 201115Z AUTO 00000KT 7SM CLR 19/19 A3006 RMK AO2 T01930190
KCWV 201055Z AUTO 00000KT 5SM BR CLR 19/19 A3005 RMK AO2 T01910188
KCWV 201035Z AUTO 00000KT 7SM CLR 19/19 A3004 RMK AO2 T01910188
KCWV 201015Z AUTO 00000KT 5SM BR CLR 20/19 A3003 RMK AO2 T01950191
KCWV 200955Z AUTO 00000KT 7SM CLR 20/19 A3003 RMK AO2 T01950191
KCWV 200935Z AUTO 00000KT 5SM BR CLR 20/19 A3002 RMK AO2 T01960193
KCWV 200915Z AUTO 00000KT 7SM CLR 20/20 A3002 RMK AO2 T02000196
KCWV 200855Z AUTO 00000KT 7SM CLR 20/20 A3002 RMK AO2 T02010197
KCWV 200835Z AUTO 00000KT 5SM BR CLR 20/20 A3002 RMK AO2 T02010197
KCWV 200815Z AUTO 00000KT 7SM CLR 20/20 A3001 RMK AO2 T02030199
KCWV 200755Z AUTO 00000KT 7SM CLR 21/20 A3002 RMK AO2 T02050201
KCWV 200735Z AUTO 00000KT 7SM CLR 21/20 A3002 RMK AO2 T02050201
KCWV 200715Z AUTO 00000KT 10SM CLR 21/21 A3002 RMK AO2 T02100205
KCWV 200655Z AUTO 00000KT 10SM CLR 21/21 A3002 RMK AO2 T02110205
KCWV 200635Z AUTO 00000KT 10SM CLR 21/20 A3002 RMK AO2 T02090204
KCWV 200615Z AUTO 00000KT 10SM CLR 21/21 A3002 RMK AO2 T02110205
KCWV 200555Z AUTO 00000KT 10SM CLR 22/21 A3003 RMK AO2 T02150208 10270 20215 403500215
KCWV 200535Z AUTO 00000KT 10SM CLR 22/21 A3003 RMK AO2 T02160208
KCWV 200515Z AUTO 00000KT 10SM CLR 22/21 A3003 RMK AO2 T02170210
KCWV 200455Z AUTO 00000KT 10SM SCT060 22/21 A3003 RMK AO2 T02190210
KCWV 200435Z AUTO 00000KT 10SM SCT060 22/21 A3003 RMK AO2 T02200210
KCWV 200415Z AUTO 00000KT 10SM CLR 22/21 A3002 RMK AO2 T02210211
KCWV 200355Z AUTO 00000KT 10SM CLR 22/21 A3002 RMK AO2 T02230211